Terminal Aerodrome Forecast
Issued by NWS Corpus Christi, TX

Home | Current Version | Previous Version | Text Only | Print | Product List | Glossary On
Versions: 1 2 3 4 5 6 7 8 9 10 11 12 13
913
FTUS44 KCRP 142340
TAFCRP
TAF
KCRP 142340Z 1500/1524 04008KT P6SM VCSH FEW025 BKN100 OVC200
      TEMPO 1500/1503 -RA BKN035
     FM150300 03009KT P6SM SCT030 OVC100
     FM150700 02020G27KT P6SM -RA BKN030 OVC080
     FM151100 01022G29KT P6SM -RA BKN020 OVC050
      TEMPO 1511/1515 6SM -RA BR OVC020
     FM151500 01017G24KT P6SM -RA OVC040
     FM151900 01012KT P6SM OVC050=

USA.gov is the U.S. government's official web portal to all federal, state and local government web resources and services.